RU-0287 weather

Korenovsk Air Base
Korenovsk, Krasnodar Krai, Russia

Public forecast

Using degrees Celsius for public forecast. Weather courtesy of forecast.io.

METAR (pilot weather report)

Closest report is Krasnodar Pashkovsky International Airport, 27.0 nm (50.0 km) SSW. Retrieved 2019/08/21 19:30 UTC (28 minutes ago):

URKK 211930Z 02005MPS CAVOK 28/10 Q1009 R05R/CLRD70 TEMPO VRB08G15MPS 2000 TSRA SCT007 BKN030CB RMK QFE754

TAF (pilot weather forecast)

Closest forecast is Krasnodar Pashkovsky International Airport, 27.0 nm (50.0 km) SSW. Retrieved 2019/08/21 21:21 UTC (0 seconds ago):

TAF URKK 211945Z 2121/2221 06003G08MPS 9999 SCT030CB TEMPO 2121/2221 VRB07G15MPS 3100 -TSRA SCT011 BKN030CB